Airfield :
LOGIN :

Register | Disclaimer

   EN    FR    IT 

 










Legend :    VFR   Marginal VFR   IFR   Intensive IFR   Very Intensive IFR
Visi :
Ceiling :
>= 8 km
>= 3000ft
5 to 8 km
1000 to 3000 ft
1500m to 5 km
500 to 1000 ft
800 to 1500m
200 to 500 ft
< 800m
< 200 ft
Symbols :   Thunderstorms  Fog  Heavy snow  Heavy precipitations  Wind > 20 kt
SIGMETs :     Misc.  Thunderstorms  Icing  Turbulence  Mountain Waves  Volcanic Ashes







- Airport Elevation : 327 ft
- IATA code : BHX
- Download approach charts


EGBB - Birmingham

EXPIRED METARs :
  • 241420Z 27011KT 230V300 9999 BKN034 22/13 Q1011
  • 241350Z 26011KT 9999 BKN034 22/13 Q1011
  • 241320Z 26008KT 220V300 9999 BKN029 21/14 Q1011
  • 241250Z 25009KT 210V280 9999 BKN031 21/13 Q1012
  • 241220Z 26010KT 210V290 9999 BKN040 21/13 Q1012
  • 241150Z 25008KT 210V280 9999 BKN033 21/13 Q1012

TAF TAF EGBB
Valid from the 24 at 12:00 until the 25 at 12:00 UTC


241056Z 2412/2512 26007KT 9999 BKN025
PROB30
TEMPO 2415/2421 8000 -RA
TEMPO 2505/2512 8000 -RA BKN014
ATIS : +44 121 780 0910
No reported NOTAMs for that airfield.



MET'MAP, your aeronautical weather chart ! - Copyright ORBIFLY December 2007 - Disclaimer

ORBIFLY MET'MAP TEAM :

Programming & Development : Alexandra Zaïnal
Concept & Development : Baudouin d'Aumeries
Co-Development & Prog : Marc-Olivier Méhu
Technical & hardware support : Manuel Goepfert

Contact : metmap@orbifly.com




SOURCES & CREDITS :

   NOAA